Time;durP1;ratioP1;P1;durP2;ratioP2;P2;SDS_P1;SDS_P2;PMS_P1;PMS_P2;Temp;Humidity;BMP_temperature;BMP_pressure;BME280_temperature;BME280_humidity;BME280_pressure;Samples;Min_cycle;Max_cycle;Signal;HPM_P1;HPM_P2
2023/07/01 00:00:27;;;;;;;;;;;22.50;52.50;;;;;;5112542;28;20295;-60
2023/07/01 00:02:53;;;;;;;;;;;22.50;52.50;;;;;;5112476;28;20010;-59
2023/07/01 00:05:19;;;;;;;;;;;22.50;52.60;;;;;;5112352;28;20432;-58
2023/07/01 00:07:45;;;;;;;;;;;22.50;52.50;;;;;;5112244;28;19920;-59
2023/07/01 00:10:10;;;;;;;;;;;22.50;52.50;;;;;;5128374;28;19919;-59
2023/07/01 00:12:36;;;;;;;;;;;22.50;52.60;;;;;;5094087;28;20402;-58
2023/07/01 00:15:02;;;;;;;;;;;22.50;52.60;;;;;;5112196;28;19930;-59
2023/07/01 00:17:28;;;;;;;;;;;22.50;52.50;;;;;;5093766;28;19923;-59
2023/07/01 00:19:53;;;;;;;;;;;22.50;52.60;;;;;;5093921;28;20367;-59
2023/07/01 00:22:19;;;;;;;;;;;22.50;52.60;;;;;;5112140;28;19962;-59
2023/07/01 00:24:44;;;;;;;;;;;22.50;52.60;;;;;;5095737;28;19963;-59
2023/07/01 00:27:10;;;;;;;;;;;22.50;52.60;;;;;;5116097;28;20378;-59
2023/07/01 00:29:35;;;;;;;;;;;22.50;52.60;;;;;;5097857;28;19964;-58
2023/07/01 00:32:01;;;;;;;;;;;22.50;52.60;;;;;;5115894;28;19920;-58
2023/07/01 00:34:27;;;;;;;;;;;22.50;52.60;;;;;;5115728;28;20115;-58
2023/07/01 00:36:52;;;;;;;;;;;22.50;52.60;;;;;;5115647;28;19924;-59
2023/07/01 00:39:17;;;;;;;;;;;22.50;52.60;;;;;;5115569;28;20375;-58
2023/07/01 00:41:45;;;;;;;;;;;22.50;52.60;;;;;;5115706;28;19937;-59
2023/07/01 00:44:10;;;;;;;;;;;22.50;52.60;;;;;;5096812;28;19920;-59
2023/07/01 00:46:36;;;;;;;;;;;22.40;52.60;;;;;;5131433;27;19920;-59
2023/07/01 00:49:01;;;;;;;;;;;22.50;52.60;;;;;;5131493;27;19976;-59
2023/07/01 00:51:28;;;;;;;;;;;22.40;52.50;;;;;;5115335;28;19920;-59
2023/07/01 00:53:54;;;;;;;;;;;22.40;52.50;;;;;;5097396;28;19935;-58
2023/07/01 00:56:19;;;;;;;;;;;22.40;52.50;;;;;;5096865;28;19926;-59
2023/07/01 00:58:45;;;;;;;;;;;22.40;52.50;;;;;;5115297;28;19920;-58
2023/07/01 01:01:13;;;;;;;;;;;22.40;52.60;;;;;;5097237;28;20403;-59
2023/07/01 01:03:43;;;;;;;;;;;22.40;52.60;;;;;;5096965;28;19932;-60
2023/07/01 01:09:12;;;;;;;;;;;22.40;52.60;;;;;;5110733;27;19919;-58
2023/07/01 01:11:41;;;;;;;;;;;22.40;52.60;;;;;;5109214;28;19920;-59
2023/07/01 01:14:09;;;;;;;;;;;22.30;52.50;;;;;;5108958;28;19970;-58
2023/07/01 01:16:35;;;;;;;;;;;22.40;52.60;;;;;;5109134;28;19966;-58
2023/07/01 01:19:00;;;;;;;;;;;22.30;52.60;;;;;;5108833;28;20042;-60
2023/07/01 01:21:27;;;;;;;;;;;22.30;52.60;;;;;;5108984;28;20010;-58
2023/07/01 01:23:57;;;;;;;;;;;22.40;52.60;;;;;;5108822;28;20014;-58
2023/07/01 01:26:23;;;;;;;;;;;22.30;52.60;;;;;;5108534;28;19920;-58
2023/07/01 01:28:49;;;;;;;;;;;22.30;52.50;;;;;;5110006;28;20404;-58
2023/07/01 01:31:14;;;;;;;;;;;22.30;52.60;;;;;;5108879;28;19927;-58
2023/07/01 01:33:40;;;;;;;;;;;22.30;52.60;;;;;;5108778;28;19924;-59
2023/07/01 01:36:08;;;;;;;;;;;22.40;52.60;;;;;;5108726;28;19920;-58
2023/07/01 01:38:35;;;;;;;;;;;22.30;52.60;;;;;;5108465;28;19919;-58
2023/07/01 01:41:04;;;;;;;;;;;22.30;52.60;;;;;;5108702;28;20367;-58
2023/07/01 01:43:35;;;;;;;;;;;22.30;52.60;;;;;;5109494;28;20379;-59
2023/07/01 01:46:02;;;;;;;;;;;22.30;52.60;;;;;;5108669;28;20005;-58
2023/07/01 01:48:28;;;;;;;;;;;22.30;52.60;;;;;;5108076;28;19934;-58
2023/07/01 01:50:54;;;;;;;;;;;22.30;52.60;;;;;;5109545;28;20337;-58
2023/07/01 01:53:20;;;;;;;;;;;22.30;52.60;;;;;;5108440;28;20002;-58
2023/07/01 01:55:46;;;;;;;;;;;22.30;52.70;;;;;;5108591;28;19927;-58
2023/07/01 01:58:12;;;;;;;;;;;22.30;52.70;;;;;;5109355;28;20276;-58
2023/07/01 02:00:37;;;;;;;;;;;22.20;52.60;;;;;;5108345;28;19920;-58
2023/07/01 02:03:03;;;;;;;;;;;22.30;52.70;;;;;;5107887;28;20032;-58
2023/07/01 02:05:28;;;;;;;;;;;22.30;52.70;;;;;;5108237;28;20170;-58
2023/07/01 02:07:55;;;;;;;;;;;22.30;52.70;;;;;;5107538;28;20386;-58
2023/07/01 02:10:20;;;;;;;;;;;22.30;52.70;;;;;;5107803;28;20383;-58
2023/07/01 02:12:46;;;;;;;;;;;22.20;52.60;;;;;;5108053;28;19927;-58
2023/07/01 02:15:11;;;;;;;;;;;22.30;52.70;;;;;;5107335;28;19920;-58
2023/07/01 02:17:37;;;;;;;;;;;22.20;52.60;;;;;;5107591;28;19920;-58
2023/07/01 02:20:03;;;;;;;;;;;22.20;52.70;;;;;;5094182;28;19920;-58
2023/07/01 02:22:29;;;;;;;;;;;22.20;52.70;;;;;;5093958;28;20240;-58
2023/07/01 02:24:55;;;;;;;;;;;22.20;52.70;;;;;;5094498;28;20650;-58
2023/07/01 02:27:22;;;;;;;;;;;22.20;52.70;;;;;;5094068;28;19971;-59
2023/07/01 02:29:48;;;;;;;;;;;22.20;52.70;;;;;;5095084;28;20391;-58
2023/07/01 02:32:13;;;;;;;;;;;22.20;52.80;;;;;;5094205;28;19920;-58
2023/07/01 02:34:39;;;;;;;;;;;22.20;52.70;;;;;;5094201;28;19927;-58
2023/07/01 02:37:04;;;;;;;;;;;22.20;52.70;;;;;;5093773;28;20471;-58
2023/07/01 02:39:30;;;;;;;;;;;22.20;52.70;;;;;;5093923;28;19920;-58
2023/07/01 02:41:55;;;;;;;;;;;22.10;52.80;;;;;;5095208;28;20378;-58
2023/07/01 02:44:21;;;;;;;;;;;22.20;52.80;;;;;;5093842;28;19920;-58
2023/07/01 02:46:47;;;;;;;;;;;22.20;52.80;;;;;;5095120;28;20031;-59
2023/07/01 02:49:12;;;;;;;;;;;22.20;52.80;;;;;;5093405;28;19967;-58
2023/07/01 02:51:38;;;;;;;;;;;22.20;52.80;;;;;;5093488;28;19942;-58
2023/07/01 02:54:03;;;;;;;;;;;22.20;52.80;;;;;;5093707;28;19920;-58
2023/07/01 02:56:29;;;;;;;;;;;22.20;52.80;;;;;;5093387;28;20012;-59
2023/07/01 02:58:54;;;;;;;;;;;22.10;52.80;;;;;;5093563;28;19928;-58
2023/07/01 03:01:20;;;;;;;;;;;22.10;52.80;;;;;;5094636;28;20294;-58
2023/07/01 03:03:49;;;;;;;;;;;22.10;52.80;;;;;;5093473;28;19920;-58
2023/07/01 03:06:15;;;;;;;;;;;22.10;52.80;;;;;;5094370;28;19928;-58
2023/07/01 03:08:40;;;;;;;;;;;22.10;52.90;;;;;;5092898;28;19924;-58
2023/07/01 03:11:06;;;;;;;;;;;22.10;52.80;;;;;;5092931;28;19977;-58
2023/07/01 03:13:32;;;;;;;;;;;22.10;52.90;;;;;;5093320;28;19920;-58
2023/07/01 03:15:57;;;;;;;;;;;22.10;52.90;;;;;;5092951;28;19969;-58
2023/07/01 03:18:23;;;;;;;;;;;22.10;52.90;;;;;;5094318;28;20049;-58
2023/07/01 03:20:49;;;;;;;;;;;22.10;52.90;;;;;;5092848;28;19920;-58
2023/07/01 03:23:15;;;;;;;;;;;22.10;52.90;;;;;;5094312;28;19920;-58
2023/07/01 03:25:41;;;;;;;;;;;22.10;53.00;;;;;;5093167;28;20256;-58
2023/07/01 03:28:07;;;;;;;;;;;22.10;53.00;;;;;;5092680;28;19924;-59
2023/07/01 03:30:34;;;;;;;;;;;22.10;53.00;;;;;;5093056;28;20429;-58
2023/07/01 03:33:00;;;;;;;;;;;22.10;53.00;;;;;;5093942;28;19920;-58
2023/07/01 03:35:26;;;;;;;;;;;22.00;53.00;;;;;;5092472;28;19924;-58
2023/07/01 03:37:51;;;;;;;;;;;22.00;53.10;;;;;;5092924;28;19935;-58
2023/07/01 03:40:17;;;;;;;;;;;22.00;53.10;;;;;;5093973;28;19959;-58
2023/07/01 03:42:42;;;;;;;;;;;22.00;53.20;;;;;;5092562;28;19920;-58
2023/07/01 03:45:10;;;;;;;;;;;22.00;53.20;;;;;;5092608;28;19920;-58
2023/07/01 03:47:36;;;;;;;;;;;22.00;53.30;;;;;;5092324;28;19927;-59
2023/07/01 03:50:02;;;;;;;;;;;22.00;53.30;;;;;;5092376;28;19920;-59
2023/07/01 03:52:27;;;;;;;;;;;22.00;53.30;;;;;;5093417;28;20311;-58
2023/07/01 03:54:53;;;;;;;;;;;22.00;53.40;;;;;;5092611;28;19923;-58
2023/07/01 03:57:18;;;;;;;;;;;22.00;53.40;;;;;;5092217;28;19927;-58
2023/07/01 03:59:44;;;;;;;;;;;22.00;53.40;;;;;;5092467;28;19920;-58
2023/07/01 04:02:10;;;;;;;;;;;22.00;53.40;;;;;;5093466;28;19924;-59
2023/07/01 04:04:36;;;;;;;;;;;22.00;54.30;;;;;;5092095;28;19924;-59
2023/07/01 04:07:01;;;;;;;;;;;22.00;53.60;;;;;;5091786;28;19947;-58
2023/07/01 04:09:27;;;;;;;;;;;22.00;53.60;;;;;;5091964;28;19994;-58
2023/07/01 04:11:52;;;;;;;;;;;22.00;53.70;;;;;;5093097;28;20362;-60
2023/07/01 04:14:18;;;;;;;;;;;21.90;53.60;;;;;;5092255;28;19929;-59
2023/07/01 04:16:44;;;;;;;;;;;22.00;53.70;;;;;;5093100;28;19928;-58
2023/07/01 04:19:10;;;;;;;;;;;21.90;53.70;;;;;;5092230;28;20488;-58
2023/07/01 04:21:35;;;;;;;;;;;22.00;53.80;;;;;;5091795;28;19925;-58
2023/07/01 04:24:04;;;;;;;;;;;21.90;53.80;;;;;;5092059;28;19998;-58
2023/07/01 04:26:30;;;;;;;;;;;21.90;53.90;;;;;;5091985;28;20039;-58
2023/07/01 04:28:55;;;;;;;;;;;21.90;53.90;;;;;;5093083;28;20014;-59
2023/07/01 04:31:21;;;;;;;;;;;21.90;53.90;;;;;;5091678;28;20014;-59
2023/07/01 04:33:46;;;;;;;;;;;21.90;53.90;;;;;;5091491;28;19959;-59
2023/07/01 04:36:12;;;;;;;;;;;21.90;54.00;;;;;;5091864;28;20321;-59
2023/07/01 04:38:37;;;;;;;;;;;21.90;54.00;;;;;;5091790;28;19920;-58
2023/07/01 04:41:05;;;;;;;;;;;21.90;54.10;;;;;;5091585;28;19966;-58
2023/07/01 04:43:30;;;;;;;;;;;21.90;54.10;;;;;;5091507;28;20013;-58
2023/07/01 04:45:56;;;;;;;;;;;21.90;54.20;;;;;;5125449;27;19998;-59
2023/07/01 04:48:21;;;;;;;;;;;21.90;54.20;;;;;;5091380;28;20302;-59
2023/07/01 04:50:47;;;;;;;;;;;21.90;54.30;;;;;;5091405;28;19959;-59
2023/07/01 04:53:12;;;;;;;;;;;21.90;54.30;;;;;;5091214;28;19920;-59
2023/07/01 04:55:38;;;;;;;;;;;21.80;54.20;;;;;;5092799;28;20026;-59
2023/07/01 04:58:03;;;;;;;;;;;21.90;54.30;;;;;;5091449;28;19920;-59
2023/07/01 05:00:29;;;;;;;;;;;21.80;54.40;;;;;;5091272;28;20394;-59
2023/07/01 05:02:55;;;;;;;;;;;21.80;54.40;;;;;;5092839;28;19931;-58
2023/07/01 05:05:20;;;;;;;;;;;21.80;54.50;;;;;;5091546;28;20427;-59
2023/07/01 05:07:46;;;;;;;;;;;21.80;54.40;;;;;;5092085;28;19924;-59
2023/07/01 05:10:11;;;;;;;;;;;21.80;54.50;;;;;;5091365;28;19924;-59
2023/07/01 05:12:37;;;;;;;;;;;21.80;54.50;;;;;;5092611;28;19920;-59
2023/07/01 05:15:02;;;;;;;;;;;21.80;54.60;;;;;;5091152;28;20293;-59
2023/07/01 05:17:28;;;;;;;;;;;21.80;54.60;;;;;;5091111;28;19927;-59
2023/07/01 05:19:53;;;;;;;;;;;21.80;54.60;;;;;;5091010;28;19920;-59
2023/07/01 05:22:19;;;;;;;;;;;21.80;54.70;;;;;;5091290;28;19934;-59
2023/07/01 05:24:44;;;;;;;;;;;21.80;54.80;;;;;;5090904;28;20319;-59
2023/07/01 05:27:10;;;;;;;;;;;21.80;55.60;;;;;;5091143;28;19924;-59
2023/07/01 05:29:35;;;;;;;;;;;21.80;54.90;;;;;;5090889;28;20007;-59
2023/07/01 05:32:02;;;;;;;;;;;21.80;54.90;;;;;;5091286;28;20299;-59
2023/07/01 05:34:29;;;;;;;;;;;21.80;54.90;;;;;;5090688;28;19920;-59
2023/07/01 05:36:54;;;;;;;;;;;21.80;54.90;;;;;;5091385;28;20371;-59
2023/07/01 05:39:20;;;;;;;;;;;21.70;55.00;;;;;;5090979;28;19928;-59
2023/07/01 05:41:45;;;;;;;;;;;21.80;55.10;;;;;;5091371;28;19973;-59
2023/07/01 05:44:11;;;;;;;;;;;21.80;55.10;;;;;;5091031;28;20406;-59
2023/07/01 05:46:38;;;;;;;;;;;21.80;55.10;;;;;;5090778;28;19920;-59
2023/07/01 05:49:03;;;;;;;;;;;21.70;55.10;;;;;;5092180;28;19961;-59
2023/07/01 05:51:29;;;;;;;;;;;21.70;55.10;;;;;;5092046;28;20412;-59
2023/07/01 05:53:54;;;;;;;;;;;21.70;55.20;;;;;;5092308;28;19924;-59
2023/07/01 05:56:20;;;;;;;;;;;21.70;55.30;;;;;;5094364;28;20422;-59
2023/07/01 05:58:45;;;;;;;;;;;21.70;55.30;;;;;;5095729;28;19920;-59
2023/07/01 06:01:11;;;;;;;;;;;21.70;55.30;;;;;;5094756;28;19920;-59
2023/07/01 06:03:36;;;;;;;;;;;21.70;56.10;;;;;;5095867;28;19920;-59
2023/07/01 06:06:02;;;;;;;;;;;21.70;55.50;;;;;;5094653;28;20422;-59
2023/07/01 06:08:27;;;;;;;;;;;21.70;55.40;;;;;;5093552;28;19931;-59
2023/07/01 06:10:52;;;;;;;;;;;21.70;55.40;;;;;;5093690;28;20389;-59
2023/07/01 06:13:18;;;;;;;;;;;21.70;55.50;;;;;;5095656;28;19920;-59
2023/07/01 06:15:44;;;;;;;;;;;21.70;55.60;;;;;;5095325;28;20294;-59
2023/07/01 06:18:09;;;;;;;;;;;21.70;55.60;;;;;;5092697;28;19920;-59
2023/07/01 06:20:35;;;;;;;;;;;21.70;55.70;;;;;;5094360;28;19924;-60
2023/07/01 06:23:00;;;;;;;;;;;21.70;55.70;;;;;;5094312;28;19974;-59
2023/07/01 06:25:26;;;;;;;;;;;21.70;55.70;;;;;;5094296;28;20037;-59
2023/07/01 06:27:51;;;;;;;;;;;21.60;55.70;;;;;;5095082;28;20280;-59
2023/07/01 06:30:17;;;;;;;;;;;21.70;55.70;;;;;;5093925;28;20012;-59
2023/07/01 06:32:42;;;;;;;;;;;21.70;55.80;;;;;;5094107;28;20124;-59
2023/07/01 06:35:08;;;;;;;;;;;21.60;55.80;;;;;;5093724;28;20417;-58
2023/07/01 06:37:33;;;;;;;;;;;21.60;55.80;;;;;;5093845;28;19920;-58
2023/07/01 06:39:59;;;;;;;;;;;21.70;55.90;;;;;;5093991;28;19927;-60
2023/07/01 06:42:24;;;;;;;;;;;21.60;55.90;;;;;;5093830;28;19965;-59
2023/07/01 06:44:49;;;;;;;;;;;21.60;56.00;;;;;;5094006;28;19927;-59
2023/07/01 06:47:15;;;;;;;;;;;21.60;56.00;;;;;;5093386;28;20093;-59
2023/07/01 06:49:40;;;;;;;;;;;21.70;56.10;;;;;;5093567;28;19924;-59
2023/07/01 06:52:06;;;;;;;;;;;21.70;56.10;;;;;;5093707;28;19981;-59
2023/07/01 06:54:32;;;;;;;;;;;21.60;56.10;;;;;;5093808;28;19920;-59
2023/07/01 06:56:57;;;;;;;;;;;21.70;56.30;;;;;;5093565;28;20328;-59
2023/07/01 06:59:22;;;;;;;;;;;21.70;56.20;;;;;;5093591;28;19969;-59
2023/07/01 07:01:48;;;;;;;;;;;21.70;56.30;;;;;;5093273;28;19920;-59
2023/07/01 07:04:13;;;;;;;;;;;21.60;56.30;;;;;;5093385;28;19920;-59
2023/07/01 07:06:39;;;;;;;;;;;21.60;56.40;;;;;;5092882;28;19920;-59
2023/07/01 07:09:05;;;;;;;;;;;21.60;56.40;;;;;;5093635;28;19978;-59
2023/07/01 07:11:30;;;;;;;;;;;21.60;56.40;;;;;;5093379;28;20348;-60
2023/07/01 07:13:59;;;;;;;;;;;21.60;56.50;;;;;;5092974;28;20389;-59
2023/07/01 07:16:25;;;;;;;;;;;21.60;56.40;;;;;;5093125;28;19920;-60
2023/07/01 07:18:51;;;;;;;;;;;21.60;56.60;;;;;;5092909;28;19924;-59
2023/07/01 07:21:17;;;;;;;;;;;21.60;56.60;;;;;;5092950;28;19943;-59
2023/07/01 07:23:42;;;;;;;;;;;21.70;56.70;;;;;;5093290;28;19991;-59
2023/07/01 07:26:08;;;;;;;;;;;21.60;56.70;;;;;;5093189;28;20364;-59
2023/07/01 07:28:34;;;;;;;;;;;21.60;56.70;;;;;;5093859;28;20415;-59
2023/07/01 07:31:00;;;;;;;;;;;21.60;56.80;;;;;;5094297;28;20378;-60
2023/07/01 07:33:25;;;;;;;;;;;21.70;56.90;;;;;;5093951;28;19924;-59
2023/07/01 07:35:51;;;;;;;;;;;21.60;56.90;;;;;;5092674;28;19951;-59
2023/07/01 07:38:16;;;;;;;;;;;21.60;56.90;;;;;;5092581;28;19921;-59
2023/07/01 07:40:43;;;;;;;;;;;21.60;56.90;;;;;;5092839;28;19920;-59
2023/07/01 07:43:09;;;;;;;;;;;21.60;56.90;;;;;;5092812;28;20268;-59
2023/07/01 07:45:35;;;;;;;;;;;21.50;56.90;;;;;;5092340;28;19924;-60
2023/07/01 07:48:00;;;;;;;;;;;21.60;57.10;;;;;;5093566;28;19973;-59
2023/07/01 07:50:26;;;;;;;;;;;21.50;57.00;;;;;;5092715;28;20007;-59
2023/07/01 07:52:51;;;;;;;;;;;21.60;57.20;;;;;;5092407;28;20260;-59
2023/07/01 07:55:17;;;;;;;;;;;21.60;57.10;;;;;;5092223;28;19920;-59
2023/07/01 07:57:43;;;;;;;;;;;21.60;57.30;;;;;;5093568;28;19942;-60
2023/07/01 08:00:08;;;;;;;;;;;21.60;57.30;;;;;;5092360;28;19920;-59
2023/07/01 08:02:34;;;;;;;;;;;21.60;57.30;;;;;;5075206;28;19920;-59
2023/07/01 08:04:59;;;;;;;;;;;21.60;57.50;;;;;;5092060;28;19965;-59
2023/07/01 08:07:25;;;;;;;;;;;21.60;57.40;;;;;;5092004;28;19928;-59
2023/07/01 08:09:50;;;;;;;;;;;21.50;57.40;;;;;;5092212;28;20375;-59
2023/07/01 08:12:16;;;;;;;;;;;21.50;57.40;;;;;;5092005;28;19920;-59
2023/07/01 08:14:41;;;;;;;;;;;21.50;57.60;;;;;;5093191;28;20045;-59
2023/07/01 08:17:07;;;;;;;;;;;21.60;57.60;;;;;;5092583;28;20018;-59
2023/07/01 08:19:33;;;;;;;;;;;21.50;57.50;;;;;;5093102;28;20298;-59
2023/07/01 08:21:59;;;;;;;;;;;21.50;57.60;;;;;;5092062;28;19927;-58
2023/07/01 08:24:25;;;;;;;;;;;21.60;57.70;;;;;;5092994;28;20063;-59
2023/07/01 08:26:50;;;;;;;;;;;21.50;57.60;;;;;;5092027;28;19920;-59
2023/07/01 08:29:16;;;;;;;;;;;21.60;57.70;;;;;;5091975;28;19970;-59
2023/07/01 08:31:41;;;;;;;;;;;21.60;57.80;;;;;;5092817;28;19936;-59
2023/07/01 08:34:07;;;;;;;;;;;21.60;57.80;;;;;;5093053;28;19966;-59
2023/07/01 08:36:33;;;;;;;;;;;21.60;57.80;;;;;;5091738;28;19920;-59
2023/07/01 08:38:58;;;;;;;;;;;21.60;57.90;;;;;;5093020;28;20333;-59
2023/07/01 08:41:25;;;;;;;;;;;21.50;57.80;;;;;;5091721;28;19920;-59
2023/07/01 08:43:52;;;;;;;;;;;21.60;58.00;;;;;;5092772;28;19966;-58
2023/07/01 08:46:19;;;;;;;;;;;21.60;58.00;;;;;;5092561;28;20261;-59
2023/07/01 08:48:45;;;;;;;;;;;21.50;58.00;;;;;;5091439;28;19924;-58
2023/07/01 08:53:51;;;;;;;;;;;21.50;58.00;;;;;;5110336;27;19934;-58
2023/07/01 08:56:20;;;;;;;;;;;21.50;58.10;;;;;;5108875;28;19920;-58
2023/07/01 08:58:46;;;;;;;;;;;21.50;58.20;;;;;;5109445;28;19926;-59
2023/07/01 09:01:12;;;;;;;;;;;21.50;58.20;;;;;;5108790;28;20030;-58
2023/07/01 09:03:37;;;;;;;;;;;21.60;58.30;;;;;;5109071;28;20015;-58
2023/07/01 09:06:05;;;;;;;;;;;21.50;58.30;;;;;;5109015;28;19920;-58
2023/07/01 09:08:32;;;;;;;;;;;21.50;58.30;;;;;;5109015;28;19960;-58
2023/07/01 09:10:57;;;;;;;;;;;21.50;58.40;;;;;;5108954;28;20011;-58
2023/07/01 09:13:24;;;;;;;;;;;21.50;58.40;;;;;;5109746;28;20019;-58
2023/07/01 09:15:50;;;;;;;;;;;21.50;58.50;;;;;;5108858;28;19924;-58
2023/07/01 09:18:20;;;;;;;;;;;21.60;58.40;;;;;;5108826;28;20421;-59
2023/07/01 09:20:46;;;;;;;;;;;21.50;58.40;;;;;;5109962;28;19927;-59
2023/07/01 09:23:24;;;;;;;;;;;21.50;58.50;;;;;;5108720;28;19928;-59
2023/07/01 09:25:49;;;;;;;;;;;21.60;58.50;;;;;;5108769;28;20011;-59
2023/07/01 09:28:28;;;;;;;;;;;21.50;58.60;;;;;;5108532;28;19998;-59
2023/07/01 09:30:54;;;;;;;;;;;21.50;59.30;;;;;;5109739;28;19927;-59
2023/07/01 09:33:20;;;;;;;;;;;21.60;58.70;;;;;;5109550;28;19924;-59
2023/07/01 09:35:46;;;;;;;;;;;21.60;58.60;;;;;;5108223;28;19920;-59
2023/07/01 09:38:11;;;;;;;;;;;21.50;58.60;;;;;;5108449;28;19927;-59
2023/07/01 09:40:37;;;;;;;;;;;21.50;58.60;;;;;;5108666;28;19920;-59
2023/07/01 09:43:02;;;;;;;;;;;21.60;58.90;;;;;;5107739;28;19927;-59
2023/07/01 09:45:28;;;;;;;;;;;21.50;58.80;;;;;;5109232;28;19920;-59
2023/07/01 09:47:54;;;;;;;;;;;21.50;58.80;;;;;;5108229;28;20054;-59
2023/07/01 09:50:21;;;;;;;;;;;21.50;58.90;;;;;;5108293;28;20278;-59
2023/07/01 09:52:46;;;;;;;;;;;21.50;58.90;;;;;;5107491;28;19924;-59
2023/07/01 09:55:12;;;;;;;;;;;21.50;58.80;;;;;;5107685;28;19923;-59
2023/07/01 09:57:38;;;;;;;;;;;21.50;58.90;;;;;;5108865;28;19961;-59
2023/07/01 10:00:06;;;;;;;;;;;21.50;58.90;;;;;;5109553;28;20371;-59
2023/07/01 10:02:32;;;;;;;;;;;21.50;59.00;;;;;;5107714;28;20053;-58
2023/07/01 10:05:00;;;;;;;;;;;21.50;59.10;;;;;;5096594;28;19928;-59
2023/07/01 10:07:26;;;;;;;;;;;21.50;59.20;;;;;;5094363;28;19998;-58
2023/07/01 10:09:51;;;;;;;;;;;21.50;59.20;;;;;;5094303;28;20354;-59
2023/07/01 10:12:17;;;;;;;;;;;21.50;59.20;;;;;;5094001;28;20019;-58
2023/07/01 10:14:47;;;;;;;;;;;21.50;59.10;;;;;;5095103;28;19931;-58
2023/07/01 10:17:14;;;;;;;;;;;21.60;59.20;;;;;;5093975;28;19924;-59
2023/07/01 10:19:46;;;;;;;;;;;21.50;59.20;;;;;;5094109;28;19924;-58
2023/07/01 10:22:29;;;;;;;;;;;21.50;59.50;;;;;;5093680;28;19999;-58
2023/07/01 10:25:02;;;;;;;;;;;21.50;59.30;;;;;;5094167;28;19967;-59
2023/07/01 10:27:48;;;;;;;;;;;21.50;59.60;;;;;;5093680;28;20421;-59
2023/07/01 10:30:13;;;;;;;;;;;21.50;59.40;;;;;;5094873;28;19920;-58
2023/07/01 10:32:39;;;;;;;;;;;21.60;59.40;;;;;;5093629;28;19931;-58
2023/07/01 10:38:05;;;;;;;;;;;21.60;59.50;;;;;;5089852;28;19941;-58
2023/07/01 10:43:20;;;;;;;;;;;21.50;59.60;;;;;;5089282;28;19920;-58
2023/07/01 10:45:45;;;;;;;;;;;21.40;59.60;;;;;;5068326;28;20007;-58
2023/07/01 10:48:11;;;;;;;;;;;21.60;59.50;;;;;;5085083;28;20067;-58
2023/07/01 10:50:57;;;;;;;;;;;21.50;59.70;;;;;;5069790;28;19921;-58
2023/07/01 10:53:22;;;;;;;;;;;21.60;59.70;;;;;;5085263;28;20364;-58
2023/07/01 10:55:48;;;;;;;;;;;21.50;59.80;;;;;;5069461;28;19935;-58
2023/07/01 10:58:14;;;;;;;;;;;21.50;59.70;;;;;;5085472;28;20118;-58
2023/07/01 11:00:40;;;;;;;;;;;21.50;59.80;;;;;;5068071;28;19920;-59
2023/07/01 11:03:10;;;;;;;;;;;21.60;59.80;;;;;;5068302;28;19979;-58
2023/07/01 11:05:36;;;;;;;;;;;21.50;59.80;;;;;;5069261;28;20439;-58
2023/07/01 11:08:06;;;;;;;;;;;21.50;60.00;;;;;;5085202;28;19920;-58
2023/07/01 11:10:32;;;;;;;;;;;21.50;59.90;;;;;;5067853;28;19935;-58
2023/07/01 11:13:03;;;;;;;;;;;21.50;59.90;;;;;;5068212;28;19924;-58
2023/07/01 11:15:28;;;;;;;;;;;21.50;59.90;;;;;;5069011;28;19920;-58
2023/07/01 11:17:56;;;;;;;;;;;21.50;59.90;;;;;;5069412;28;19921;-58
2023/07/01 11:20:21;;;;;;;;;;;21.60;60.00;;;;;;5068925;28;19928;-58
2023/07/01 11:22:48;;;;;;;;;;;21.50;60.00;;;;;;5084560;28;19924;-58
2023/07/01 11:25:13;;;;;;;;;;;21.50;60.20;;;;;;5067657;28;19925;-58
2023/07/01 11:27:41;;;;;;;;;;;21.50;60.30;;;;;;5084496;28;20264;-58
2023/07/01 11:30:07;;;;;;;;;;;21.50;60.10;;;;;;5067489;28;19974;-58
2023/07/01 11:32:33;;;;;;;;;;;21.50;60.30;;;;;;5084608;28;19928;-58
2023/07/01 11:34:58;;;;;;;;;;;21.60;60.30;;;;;;5067316;28;19920;-58
2023/07/01 11:37:24;;;;;;;;;;;21.60;60.50;;;;;;5068784;28;19924;-58
2023/07/01 11:39:50;;;;;;;;;;;21.60;60.60;;;;;;5067709;28;19920;-58
2023/07/01 11:42:15;;;;;;;;;;;21.60;60.40;;;;;;5081010;28;19994;-58
2023/07/01 11:44:41;;;;;;;;;;;21.50;60.50;;;;;;5099685;28;19920;-58
2023/07/01 11:47:10;;;;;;;;;;;21.60;60.60;;;;;;5108156;28;19931;-58
2023/07/01 11:49:36;;;;;;;;;;;21.50;60.50;;;;;;5091196;28;19980;-58
2023/07/01 11:52:03;;;;;;;;;;;21.60;61.40;;;;;;5091034;28;20381;-58
2023/07/01 11:57:16;;;;;;;;;;;21.60;60.70;;;;;;5090334;28;19919;-59
2023/07/01 11:59:44;;;;;;;;;;;21.50;61.20;;;;;;5088842;28;19924;-59
2023/07/01 12:02:09;;;;;;;;;;;21.60;60.60;;;;;;5088529;28;19924;-59
2023/07/01 12:04:35;;;;;;;;;;;21.60;60.40;;;;;;5089883;28;19920;-58
2023/07/01 12:07:05;;;;;;;;;;;21.60;60.30;;;;;;5088724;28;20015;-59
2023/07/01 12:09:30;;;;;;;;;;;21.60;60.60;;;;;;5089697;28;19927;-59
2023/07/01 12:11:56;;;;;;;;;;;21.60;60.60;;;;;;5088404;28;19920;-58
2023/07/01 12:14:22;;;;;;;;;;;21.60;60.70;;;;;;5088575;28;19920;-59
2023/07/01 12:16:49;;;;;;;;;;;21.60;60.70;;;;;;5088236;28;19930;-59
2023/07/01 12:19:16;;;;;;;;;;;21.60;60.80;;;;;;5089701;28;20384;-59
2023/07/01 12:21:43;;;;;;;;;;;21.60;60.80;;;;;;5088565;28;20019;-58
2023/07/01 12:24:25;;;;;;;;;;;21.60;60.80;;;;;;5089322;28;19920;-58
2023/07/01 12:26:53;;;;;;;;;;;21.60;60.70;;;;;;5088247;28;20364;-58
2023/07/01 12:29:19;;;;;;;;;;;21.60;60.70;;;;;;5089507;28;20307;-59
2023/07/01 12:31:45;;;;;;;;;;;21.60;60.90;;;;;;5088287;28;19920;-59
2023/07/01 12:34:10;;;;;;;;;;;21.60;60.90;;;;;;5088140;28;20268;-58
2023/07/01 12:36:36;;;;;;;;;;;21.50;60.80;;;;;;5089164;28;19978;-59
2023/07/01 12:39:03;;;;;;;;;;;21.60;60.90;;;;;;5089171;28;19924;-58
2023/07/01 12:41:29;;;;;;;;;;;21.70;60.80;;;;;;5087778;28;19921;-58
2023/07/01 12:43:55;;;;;;;;;;;21.60;60.70;;;;;;5088741;28;20337;-58
2023/07/01 12:46:20;;;;;;;;;;;21.60;60.70;;;;;;5087743;28;19924;-59
2023/07/01 12:48:46;;;;;;;;;;;21.60;61.00;;;;;;5087678;28;20299;-58
2023/07/01 12:51:11;;;;;;;;;;;21.60;61.10;;;;;;5088937;28;20287;-59
2023/07/01 12:53:39;;;;;;;;;;;21.60;61.10;;;;;;5087548;28;19924;-58
2023/07/01 12:56:05;;;;;;;;;;;21.60;61.00;;;;;;5099681;28;19978;-58
2023/07/01 12:58:30;;;;;;;;;;;21.60;61.10;;;;;;5091017;28;19975;-59
2023/07/01 13:00:57;;;;;;;;;;;21.60;61.10;;;;;;5109288;28;20432;-58
2023/07/01 13:03:22;;;;;;;;;;;21.60;60.90;;;;;;5090711;28;19920;-59
2023/07/01 13:05:48;;;;;;;;;;;21.60;61.20;;;;;;5091210;28;19964;-59
2023/07/01 13:08:13;;;;;;;;;;;21.60;61.30;;;;;;5079120;28;20306;-59
2023/07/01 13:10:40;;;;;;;;;;;21.60;61.20;;;;;;5077006;28;19920;-59
2023/07/01 13:13:06;;;;;;;;;;;21.60;61.20;;;;;;5095212;28;19920;-59
2023/07/01 13:15:32;;;;;;;;;;;21.70;61.20;;;;;;5093780;28;19924;-59
2023/07/01 13:17:59;;;;;;;;;;;21.70;61.30;;;;;;5095094;28;20387;-59
2023/07/01 13:20:28;;;;;;;;;;;21.60;61.40;;;;;;5095142;28;19920;-59
2023/07/01 13:22:55;;;;;;;;;;;21.70;61.30;;;;;;5077120;28;19926;-58
2023/07/01 13:25:22;;;;;;;;;;;21.60;61.40;;;;;;5076756;28;20042;-59
2023/07/01 13:27:47;;;;;;;;;;;21.60;61.40;;;;;;5077030;28;19928;-59
2023/07/01 13:30:28;;;;;;;;;;;21.60;61.20;;;;;;5077091;28;20444;-59
2023/07/01 13:32:54;;;;;;;;;;;21.60;61.10;;;;;;5077053;28;19920;-59
2023/07/01 13:35:20;;;;;;;;;;;21.60;61.00;;;;;;5094880;28;19961;-59
2023/07/01 13:37:46;;;;;;;;;;;21.60;61.00;;;;;;5094165;28;19924;-59
2023/07/01 13:40:13;;;;;;;;;;;21.60;61.00;;;;;;5076720;28;19920;-58
2023/07/01 13:42:39;;;;;;;;;;;21.60;61.10;;;;;;5094737;28;19931;-58
2023/07/01 13:45:09;;;;;;;;;;;21.70;61.20;;;;;;5076732;28;19920;-58
2023/07/01 13:50:20;;;;;;;;;;;21.60;61.10;;;;;;5110252;27;20388;-59
2023/07/01 13:52:47;;;;;;;;;;;21.70;61.10;;;;;;5108966;28;20418;-59
2023/07/01 13:55:12;;;;;;;;;;;21.60;61.10;;;;;;5108824;28;20359;-59
2023/07/01 13:57:38;;;;;;;;;;;21.60;61.10;;;;;;5143538;27;19931;-59
2023/07/01 14:00:07;;;;;;;;;;;21.60;61.00;;;;;;5108789;28;19920;-59
2023/07/01 14:02:33;;;;;;;;;;;21.60;61.20;;;;;;5109048;28;19927;-59
2023/07/01 14:04:58;;;;;;;;;;;21.70;61.20;;;;;;5108776;28;20347;-59
2023/07/01 14:07:24;;;;;;;;;;;21.70;61.10;;;;;;5109199;28;19964;-58
2023/07/01 14:09:49;;;;;;;;;;;21.70;61.10;;;;;;5108482;28;19977;-59
2023/07/01 14:12:16;;;;;;;;;;;21.70;61.10;;;;;;5108837;28;19963;-59
2023/07/01 14:14:42;;;;;;;;;;;21.70;61.00;;;;;;5108897;28;19926;-58
2023/07/01 14:17:07;;;;;;;;;;;21.70;60.90;;;;;;5108435;28;20410;-59
2023/07/01 14:19:35;;;;;;;;;;;21.70;60.90;;;;;;5109869;28;19980;-59
2023/07/01 14:22:01;;;;;;;;;;;21.70;60.80;;;;;;5110164;28;19943;-58
2023/07/01 14:24:28;;;;;;;;;;;21.70;60.80;;;;;;5108337;28;20371;-59
2023/07/01 14:26:56;;;;;;;;;;;21.70;61.00;;;;;;5103523;28;19927;-59